createdAt,value
2023-05-25T00:01:44.108Z,12.30
2023-05-25T00:04:11.701Z,8.83
2023-05-25T00:06:41.172Z,14.77
2023-05-25T00:09:08.437Z,10.53
2023-05-25T00:11:35.545Z,10.27
2023-05-25T00:14:02.722Z,8.90
2023-05-25T00:16:29.859Z,12.50
2023-05-25T00:18:57.857Z,9.10
2023-05-25T00:21:25.817Z,10.35
2023-05-25T00:23:52.830Z,10.50
2023-05-25T00:26:19.811Z,14.90
2023-05-25T00:28:46.751Z,12.75
2023-05-25T00:31:14.038Z,12.33
2023-05-25T00:33:41.350Z,12.67
2023-05-25T00:36:09.151Z,10.00
2023-05-25T00:38:36.273Z,13.50
2023-05-25T00:41:03.256Z,17.33
2023-05-25T00:43:30.229Z,10.47
2023-05-25T00:45:58.044Z,12.37
2023-05-25T00:48:26.551Z,12.13
2023-05-25T00:50:58.186Z,12.90
2023-05-25T00:53:25.613Z,11.50
2023-05-25T00:56:14.325Z,11.50
2023-05-25T00:58:42.998Z,8.87
2023-05-25T01:01:13.252Z,15.15
2023-05-25T01:03:45.845Z,7.30
2023-05-25T01:06:15.909Z,14.50
2023-05-25T01:08:49.100Z,15.27
2023-05-25T01:11:19.574Z,13.17
2023-05-25T01:13:47.909Z,18.00
2023-05-25T01:16:16.751Z,10.77
2023-05-25T01:18:48.173Z,10.27
2023-05-25T01:21:29.445Z,10.43
2023-05-25T01:24:13.818Z,17.63
2023-05-25T01:26:47.301Z,21.20
2023-05-25T01:29:16.077Z,14.30
2023-05-25T01:31:45.573Z,11.35
2023-05-25T01:34:14.020Z,12.07
2023-05-25T01:36:41.763Z,10.40
2023-05-25T01:39:11.144Z,18.87
2023-05-25T01:41:38.340Z,11.73
2023-05-25T01:44:07.751Z,12.00
2023-05-25T01:46:39.451Z,17.57
2023-05-25T01:49:28.551Z,11.17
2023-05-25T01:52:04.154Z,14.60
2023-05-25T01:54:38.426Z,9.37
2023-05-25T01:57:10.267Z,15.77
2023-05-25T01:59:38.475Z,16.03
2023-05-25T02:02:06.874Z,20.03
2023-05-25T02:04:34.921Z,15.60
2023-05-25T02:07:04.272Z,10.20
2023-05-25T02:09:31.348Z,14.63
2023-05-25T02:11:58.602Z,13.60
2023-05-25T02:14:26.172Z,13.23
2023-05-25T02:16:53.474Z,16.17
2023-05-25T02:19:20.666Z,19.47
2023-05-25T02:21:47.627Z,20.80
2023-05-25T02:24:14.810Z,20.20
2023-05-25T02:26:41.908Z,16.30
2023-05-25T02:29:08.925Z,18.93
2023-05-25T02:31:36.107Z,19.30
2023-05-25T02:34:03.384Z,14.80
2023-05-25T02:36:30.432Z,15.50
2023-05-25T02:38:57.339Z,24.27
2023-05-25T02:41:26.378Z,21.10
2023-05-25T02:43:53.837Z,21.80
2023-05-25T02:46:21.099Z,18.17
2023-05-25T02:48:48.201Z,22.50
2023-05-25T02:51:15.192Z,23.50
2023-05-25T02:53:42.433Z,23.70
2023-05-25T02:56:11.003Z,24.03
2023-05-25T02:58:38.860Z,20.70
2023-05-25T03:01:06.360Z,22.37
2023-05-25T03:03:33.539Z,26.03
2023-05-25T03:06:00.820Z,22.87
2023-05-25T03:08:27.793Z,23.40
2023-05-25T03:10:54.866Z,28.73
2023-05-25T03:13:21.897Z,26.70
2023-05-25T03:15:48.909Z,23.20
2023-05-25T03:18:16.310Z,22.10
2023-05-25T03:20:44.103Z,30.80
2023-05-25T03:23:11.221Z,24.10
2023-05-25T03:25:38.176Z,24.23
2023-05-25T03:28:05.288Z,21.30
2023-05-25T03:30:32.274Z,24.87
2023-05-25T03:32:59.287Z,23.70
2023-05-25T03:35:26.304Z,19.83
2023-05-25T03:37:53.348Z,26.63
2023-05-25T03:40:20.528Z,21.10
2023-05-25T03:42:47.601Z,21.30
2023-05-25T03:45:14.650Z,18.60
2023-05-25T03:47:41.595Z,21.20
2023-05-25T03:50:08.960Z,19.90
2023-05-25T03:52:36.279Z,21.37
2023-05-25T03:55:05.155Z,19.50
2023-05-25T03:57:32.046Z,22.27
2023-05-25T03:59:59.023Z,21.80
2023-05-25T04:02:26.675Z,18.03
2023-05-25T04:04:53.996Z,23.70
2023-05-25T04:07:21.011Z,21.13
2023-05-25T04:09:48.070Z,22.80
2023-05-25T04:12:14.944Z,18.90
2023-05-25T04:14:42.829Z,16.43
2023-05-25T04:17:09.868Z,23.13
2023-05-25T04:19:36.889Z,27.13
2023-05-25T04:22:04.491Z,21.50
2023-05-25T04:24:32.690Z,23.73
2023-05-25T04:27:00.001Z,21.15
2023-05-25T04:29:27.146Z,18.83
2023-05-25T04:31:54.853Z,16.93
2023-05-25T04:34:21.853Z,17.90
2023-05-25T04:36:49.551Z,20.27
2023-05-25T04:39:16.595Z,22.87
2023-05-25T04:41:44.224Z,20.80
2023-05-25T04:44:11.435Z,16.20
2023-05-25T04:46:39.165Z,17.33
2023-05-25T04:49:08.634Z,20.07
2023-05-25T04:51:36.113Z,20.10
2023-05-25T04:54:03.179Z,15.00
2023-05-25T04:56:30.104Z,14.87
2023-05-25T04:58:56.996Z,22.93
2023-05-25T05:01:24.084Z,17.77
2023-05-25T05:03:51.107Z,18.03
2023-05-25T05:06:18.193Z,24.93
2023-05-25T05:08:45.145Z,24.40
2023-05-25T05:11:12.003Z,20.07
2023-05-25T05:13:38.871Z,19.23
2023-05-25T05:16:06.651Z,21.73
2023-05-25T05:18:33.638Z,18.20
2023-05-25T05:21:00.562Z,19.50
2023-05-25T05:23:27.512Z,17.63
2023-05-25T05:25:54.423Z,18.20
2023-05-25T05:28:21.473Z,21.40
2023-05-25T05:30:48.400Z,20.37
2023-05-25T05:33:19.854Z,18.90
2023-05-25T05:35:47.151Z,21.40
2023-05-25T05:38:14.060Z,20.90
2023-05-25T05:40:40.983Z,28.93
2023-05-25T05:43:09.890Z,22.70
2023-05-25T05:45:36.828Z,18.97
2023-05-25T05:48:04.877Z,25.33
2023-05-25T05:50:31.987Z,19.53
2023-05-25T05:52:58.809Z,17.70
2023-05-25T05:55:26.526Z,17.30
2023-05-25T05:57:53.562Z,18.67
2023-05-25T06:00:20.775Z,19.47
2023-05-25T06:02:47.770Z,21.90
2023-05-25T06:05:15.103Z,18.30
2023-05-25T06:07:44.685Z,19.03
2023-05-25T06:10:11.806Z,19.77
2023-05-25T06:12:38.730Z,15.87
2023-05-25T06:15:06.592Z,20.30
2023-05-25T06:17:34.169Z,19.10
2023-05-25T06:20:01.293Z,15.33
2023-05-25T06:22:29.261Z,18.90
2023-05-25T06:24:56.208Z,20.20
2023-05-25T06:27:23.596Z,20.03
2023-05-25T06:29:50.601Z,16.93
2023-05-25T06:32:17.784Z,20.17
2023-05-25T06:34:44.981Z,18.30
2023-05-25T06:37:11.999Z,20.23
2023-05-25T06:39:40.682Z,18.40
2023-05-25T06:42:07.829Z,19.63
2023-05-25T06:44:34.952Z,20.83
2023-05-25T06:47:02.847Z,20.43
2023-05-25T06:49:30.648Z,18.77
2023-05-25T06:51:57.564Z,19.10
2023-05-25T06:54:24.470Z,19.23
2023-05-25T06:56:51.849Z,19.17
2023-05-25T06:59:19.162Z,19.20
2023-05-25T07:01:49.824Z,19.80
2023-05-25T07:04:16.867Z,23.53
2023-05-25T07:06:43.843Z,21.77
2023-05-25T07:09:11.159Z,17.77
2023-05-25T07:11:40.600Z,15.80
2023-05-25T07:14:07.491Z,18.43
2023-05-25T07:16:34.428Z,20.60
2023-05-25T07:19:02.671Z,19.33
2023-05-25T07:21:33.549Z,20.33
2023-05-25T07:24:00.799Z,18.23
2023-05-25T07:26:28.001Z,18.80
2023-05-25T07:28:55.032Z,20.00
2023-05-25T07:31:22.571Z,16.33
2023-05-25T07:33:49.924Z,20.57
2023-05-25T07:36:17.349Z,17.10
2023-05-25T07:38:44.259Z,14.23
2023-05-25T07:41:13.480Z,17.77
2023-05-25T07:43:40.563Z,20.70
2023-05-25T07:46:07.385Z,15.07
2023-05-25T07:48:34.357Z,19.00
2023-05-25T07:51:01.302Z,17.90
2023-05-25T07:53:28.309Z,19.53
2023-05-25T07:55:55.141Z,25.90
2023-05-25T07:58:22.008Z,16.40
2023-05-25T08:00:50.176Z,16.57
2023-05-25T08:03:17.989Z,21.53
2023-05-25T08:05:45.154Z,21.73
2023-05-25T08:08:12.272Z,17.13
2023-05-25T08:10:39.133Z,19.00
2023-05-25T08:13:06.024Z,18.27
2023-05-25T08:15:32.918Z,19.47
2023-05-25T08:17:59.889Z,14.97
2023-05-25T08:20:26.906Z,15.47
2023-05-25T08:22:54.721Z,21.80
2023-05-25T08:25:21.985Z,13.93
2023-05-25T08:27:49.161Z,17.53
2023-05-25T08:30:16.054Z,15.17
2023-05-25T08:32:42.989Z,16.40
2023-05-25T08:35:10.236Z,25.30
2023-05-25T08:37:37.098Z,17.13
2023-05-25T08:40:04.646Z,15.97
2023-05-25T08:42:31.460Z,17.33
2023-05-25T08:44:58.998Z,13.73
2023-05-25T08:47:33.057Z,20.67
2023-05-25T08:50:01.695Z,16.13
2023-05-25T08:52:33.455Z,15.20
2023-05-25T08:55:05.136Z,15.47
2023-05-25T08:57:54.184Z,15.30
2023-05-25T09:00:28.211Z,19.10
2023-05-25T09:03:18.271Z,18.43
2023-05-25T09:05:46.152Z,16.90
2023-05-25T09:08:13.791Z,15.30
2023-05-25T09:10:41.254Z,14.03
2023-05-25T09:15:37.927Z,13.53
2023-05-25T09:18:05.422Z,16.70
2023-05-25T09:20:32.662Z,23.23
2023-05-25T09:23:00.184Z,12.93
2023-05-25T09:25:28.750Z,16.47
2023-05-25T09:28:00.173Z,14.87
2023-05-25T09:30:32.990Z,15.70
2023-05-25T09:33:13.270Z,17.30
2023-05-25T09:35:40.956Z,17.20
2023-05-25T09:38:08.115Z,15.60
2023-05-25T09:40:36.070Z,17.70
2023-05-25T09:43:04.197Z,12.17
2023-05-25T09:45:31.813Z,14.70
2023-05-25T09:47:59.879Z,15.27
2023-05-25T09:50:30.032Z,15.20
2023-05-25T09:53:02.465Z,17.33
2023-05-25T09:55:44.006Z,12.63
2023-05-25T09:58:17.047Z,15.97
2023-05-25T10:00:46.360Z,17.27
2023-05-25T10:03:15.497Z,14.63
2023-05-25T10:05:42.538Z,16.30
2023-05-25T10:08:10.892Z,15.30
2023-05-25T10:10:39.158Z,15.23
2023-05-25T10:13:09.541Z,16.17
2023-05-25T10:15:40.101Z,16.67
2023-05-25T10:18:09.475Z,15.43
2023-05-25T10:20:36.911Z,14.90
2023-05-25T10:23:13.271Z,13.30
2023-05-25T10:25:47.661Z,15.00
2023-05-25T10:28:22.009Z,15.47
2023-05-25T10:30:51.802Z,16.10
2023-05-25T10:33:20.548Z,16.23
2023-05-25T10:36:02.516Z,16.40
2023-05-25T10:38:36.630Z,16.03
2023-05-25T10:41:05.838Z,14.80
2023-05-25T10:43:32.931Z,17.17
2023-05-25T10:46:03.115Z,19.03
2023-05-25T10:48:40.301Z,15.43
2023-05-25T10:51:09.330Z,20.50
2023-05-25T10:53:38.387Z,17.97
2023-05-25T10:56:07.410Z,16.00
2023-05-25T10:58:34.522Z,17.47
2023-05-25T11:01:08.672Z,19.40
2023-05-25T11:03:45.338Z,15.30
2023-05-25T11:06:16.564Z,17.70
2023-05-25T11:08:56.277Z,16.40
2023-05-25T11:11:43.282Z,17.57
2023-05-25T11:14:23.823Z,17.43
2023-05-25T11:17:24.671Z,16.90
2023-05-25T11:19:54.044Z,14.00
2023-05-25T11:22:22.842Z,14.60
2023-05-25T11:24:53.849Z,16.40
2023-05-25T11:27:25.036Z,15.93
2023-05-25T11:29:53.002Z,21.53
2023-05-25T11:32:21.455Z,14.03
2023-05-25T11:34:48.897Z,17.03
2023-05-25T11:37:22.826Z,18.33
2023-05-25T11:39:53.984Z,12.30
2023-05-25T11:42:22.363Z,11.97
2023-05-25T11:44:49.546Z,19.40
2023-05-25T11:47:23.095Z,10.20
2023-05-25T11:49:50.660Z,11.60
2023-05-25T11:52:19.144Z,14.50
2023-05-25T11:54:46.930Z,14.80
2023-05-25T11:57:18.519Z,15.90
2023-05-25T12:00:01.253Z,14.07
2023-05-25T12:02:28.263Z,14.90
2023-05-25T12:05:03.880Z,17.83
2023-05-25T12:07:32.079Z,17.80
2023-05-25T12:10:10.272Z,11.50
2023-05-25T12:12:44.089Z,10.57
2023-05-25T12:15:13.748Z,17.13
2023-05-25T12:17:45.570Z,11.60
2023-05-25T12:20:15.348Z,12.60
2023-05-25T12:22:43.807Z,16.00
2023-05-25T12:25:12.604Z,12.63
2023-05-25T12:27:42.765Z,12.70
2023-05-25T12:30:10.633Z,13.43
2023-05-25T12:33:02.854Z,15.00
2023-05-25T12:35:43.895Z,10.70
2023-05-25T12:38:12.408Z,11.27
2023-05-25T12:40:39.363Z,16.10
2023-05-25T12:43:06.384Z,11.97
2023-05-25T12:45:33.311Z,10.50
2023-05-25T12:48:02.300Z,15.50
2023-05-25T12:50:29.646Z,10.63
2023-05-25T12:53:04.239Z,10.90
2023-05-25T12:55:34.366Z,14.70
2023-05-25T12:58:04.761Z,10.37
2023-05-25T13:00:40.194Z,12.13
2023-05-25T13:03:07.805Z,12.53
2023-05-25T13:05:37.797Z,11.70
2023-05-25T13:08:06.148Z,14.10
2023-05-25T13:10:33.871Z,16.33
2023-05-25T13:13:01.008Z,14.70
2023-05-25T13:15:28.741Z,13.67
2023-05-25T13:18:00.365Z,10.47
2023-05-25T13:20:30.224Z,16.10
2023-05-25T13:22:57.436Z,16.70
2023-05-25T13:25:27.268Z,16.47
2023-05-25T13:27:55.190Z,13.80
2023-05-25T13:30:22.580Z,13.33
2023-05-25T13:32:51.620Z,20.53
2023-05-25T13:35:23.420Z,13.10
2023-05-25T13:37:51.447Z,15.30
2023-05-25T13:40:19.239Z,12.53
2023-05-25T13:42:46.339Z,13.13
2023-05-25T13:45:13.970Z,16.43
2023-05-25T13:47:43.651Z,13.40
2023-05-25T13:50:11.339Z,16.20
2023-05-25T13:52:38.470Z,15.07
2023-05-25T13:55:06.031Z,17.50
2023-05-25T13:57:33.075Z,15.43
2023-05-25T13:59:59.981Z,13.30
2023-05-25T14:02:27.113Z,14.73
2023-05-25T14:04:54.177Z,11.80
2023-05-25T14:07:21.245Z,14.33
2023-05-25T14:09:48.125Z,17.03
2023-05-25T14:12:15.114Z,12.80
2023-05-25T14:14:42.303Z,15.07
2023-05-25T14:17:09.247Z,15.33
2023-05-25T14:19:36.212Z,19.83
2023-05-25T14:22:13.219Z,14.03
2023-05-25T14:24:41.329Z,15.10
2023-05-25T14:27:08.438Z,13.67
2023-05-25T14:29:35.532Z,11.83
2023-05-25T14:32:02.648Z,14.73
2023-05-25T14:34:29.965Z,17.10
2023-05-25T14:36:56.858Z,14.37
2023-05-25T14:39:23.818Z,13.63
2023-05-25T14:41:50.755Z,12.20
2023-05-25T14:44:17.712Z,11.30
2023-05-25T14:46:44.724Z,14.40
2023-05-25T14:49:11.740Z,17.97
2023-05-25T14:51:38.804Z,12.50
2023-05-25T14:54:07.344Z,12.13
2023-05-25T14:56:34.719Z,10.00
2023-05-25T14:59:01.779Z,11.37
2023-05-25T15:01:29.576Z,13.70
2023-05-25T15:03:57.135Z,13.17
2023-05-25T15:06:24.280Z,8.50
2023-05-25T15:08:51.492Z,10.20
2023-05-25T15:11:18.601Z,12.37
2023-05-25T15:13:46.111Z,10.80
2023-05-25T15:16:13.692Z,11.17
2023-05-25T15:18:40.655Z,12.07
2023-05-25T15:21:07.596Z,18.23
2023-05-25T15:23:34.817Z,11.57
2023-05-25T15:26:04.283Z,11.80
2023-05-25T15:28:31.784Z,11.07
2023-05-25T15:31:02.297Z,10.90
2023-05-25T15:33:40.001Z,13.60
2023-05-25T15:36:15.801Z,9.90
2023-05-25T15:38:43.487Z,20.70
2023-05-25T15:41:11.533Z,13.87
2023-05-25T15:43:38.507Z,8.60
2023-05-25T15:46:05.469Z,8.37
2023-05-25T15:48:32.408Z,11.27
2023-05-25T15:50:59.432Z,14.53
2023-05-25T15:53:26.463Z,10.67
2023-05-25T15:55:53.356Z,8.97
2023-05-25T15:58:20.300Z,11.97
2023-05-25T16:00:47.306Z,18.23
2023-05-25T16:03:14.191Z,11.70
2023-05-25T16:05:41.217Z,11.90
2023-05-25T16:08:08.151Z,10.50
2023-05-25T16:10:35.154Z,10.40
2023-05-25T16:13:02.116Z,14.30
2023-05-25T16:15:29.045Z,9.53
2023-05-25T16:17:56.225Z,7.97
2023-05-25T16:20:23.262Z,9.20
2023-05-25T16:22:50.271Z,16.17
2023-05-25T16:25:17.349Z,11.43
2023-05-25T16:27:44.481Z,12.60
2023-05-25T16:30:13.315Z,18.40
2023-05-25T16:32:40.890Z,11.87
2023-05-25T16:35:08.368Z,12.43
2023-05-25T16:37:35.479Z,8.83
2023-05-25T16:40:02.498Z,9.60
2023-05-25T16:42:29.453Z,11.63
2023-05-25T16:44:56.462Z,13.70
2023-05-25T16:47:23.512Z,10.40
2023-05-25T16:49:50.712Z,15.80
2023-05-25T16:52:17.722Z,8.57
2023-05-25T16:54:44.697Z,8.73
2023-05-25T16:57:12.258Z,9.60
2023-05-25T16:59:39.627Z,9.10
2023-05-25T17:02:07.080Z,7.80
2023-05-25T17:04:34.034Z,9.07
2023-05-25T17:07:01.047Z,11.57
2023-05-25T17:09:27.996Z,11.27
2023-05-25T17:11:59.483Z,11.27
2023-05-25T17:14:26.756Z,12.20
2023-05-25T17:16:54.025Z,7.77
2023-05-25T17:19:21.172Z,10.40
2023-05-25T17:21:48.348Z,12.43
2023-05-25T17:24:15.499Z,13.47
2023-05-25T17:26:42.571Z,8.40
2023-05-25T17:29:09.674Z,8.97
2023-05-25T17:31:36.609Z,13.23
2023-05-25T17:34:03.704Z,14.53
2023-05-25T17:36:30.893Z,5.33
2023-05-25T17:38:58.095Z,15.33
2023-05-25T17:41:25.111Z,13.53
2023-05-25T17:43:52.290Z,9.60
2023-05-25T17:46:19.339Z,8.97
2023-05-25T17:48:49.225Z,8.70
2023-05-25T17:51:16.217Z,9.77
2023-05-25T17:53:43.339Z,11.47
2023-05-25T17:56:10.402Z,9.73
2023-05-25T17:58:38.162Z,8.20
2023-05-25T18:01:05.445Z,12.17
2023-05-25T18:03:32.549Z,11.43
2023-05-25T18:05:59.631Z,10.90
2023-05-25T18:08:26.502Z,17.17
2023-05-25T18:10:53.369Z,8.73
2023-05-25T18:13:20.273Z,13.57
2023-05-25T18:15:47.284Z,7.03
2023-05-25T18:18:16.450Z,13.93
2023-05-25T18:20:43.500Z,7.27
2023-05-25T18:23:10.382Z,9.80
2023-05-25T18:25:37.345Z,14.80
2023-05-25T18:28:04.351Z,7.90
2023-05-25T18:30:31.246Z,7.50
2023-05-25T18:32:58.255Z,13.57
2023-05-25T18:35:25.238Z,12.27
2023-05-25T18:37:52.107Z,5.73
2023-05-25T18:40:18.985Z,9.43
2023-05-25T18:42:45.920Z,9.53
2023-05-25T18:45:12.878Z,14.00
2023-05-25T18:47:39.870Z,9.17
2023-05-25T18:50:07.190Z,7.40
2023-05-25T18:52:34.044Z,7.10
2023-05-25T18:55:01.494Z,11.50
2023-05-25T18:57:28.871Z,5.53
2023-05-25T18:59:55.955Z,7.73
2023-05-25T19:02:23.020Z,9.00
2023-05-25T19:04:50.098Z,7.20
2023-05-25T19:07:17.058Z,11.53
2023-05-25T19:09:44.115Z,9.60
2023-05-25T19:12:11.082Z,9.63
2023-05-25T19:14:38.046Z,9.30
2023-05-25T19:17:05.158Z,10.37
2023-05-25T19:19:32.252Z,11.40
2023-05-25T19:21:59.165Z,10.80
2023-05-25T19:24:26.153Z,12.37
2023-05-25T19:26:53.046Z,8.13
2023-05-25T19:29:20.169Z,10.60
2023-05-25T19:31:47.052Z,12.03
2023-05-25T19:34:14.139Z,13.73
2023-05-25T19:36:41.084Z,11.53
2023-05-25T19:39:08.109Z,14.53
2023-05-25T19:41:37.636Z,7.53
2023-05-25T19:44:04.682Z,7.20
2023-05-25T19:46:31.727Z,9.57
2023-05-25T19:48:59.071Z,9.90
2023-05-25T19:51:26.120Z,11.77
2023-05-25T19:53:53.744Z,9.40
2023-05-25T19:56:21.356Z,10.40
2023-05-25T19:58:48.603Z,11.93
2023-05-25T20:01:15.822Z,12.70
2023-05-25T20:03:44.717Z,9.87
2023-05-25T20:06:11.854Z,9.47
2023-05-25T20:08:38.865Z,10.70
2023-05-25T20:11:05.876Z,10.50
2023-05-25T20:13:32.883Z,11.83
2023-05-25T20:15:59.859Z,10.33
2023-05-25T20:18:26.844Z,11.13
2023-05-25T20:20:54.956Z,16.70
2023-05-25T20:23:21.863Z,14.00
2023-05-25T20:25:48.746Z,11.70
2023-05-25T20:28:15.673Z,12.83
2023-05-25T20:30:42.626Z,11.90
2023-05-25T20:33:09.612Z,11.60
2023-05-25T20:35:37.524Z,14.00
2023-05-25T20:38:04.664Z,13.67
2023-05-25T20:40:31.793Z,14.30
2023-05-25T20:42:58.740Z,15.23
2023-05-25T20:45:25.980Z,17.47
2023-05-25T20:48:00.723Z,14.13
2023-05-25T20:50:28.625Z,12.10
2023-05-25T20:52:56.267Z,11.60
2023-05-25T20:55:23.407Z,10.53
2023-05-25T20:57:50.325Z,15.70
2023-05-25T21:00:17.534Z,13.53
2023-05-25T21:02:44.502Z,12.50
2023-05-25T21:05:11.500Z,18.87
2023-05-25T21:07:38.410Z,18.47
2023-05-25T21:10:05.838Z,14.03
2023-05-25T21:12:32.763Z,14.90
2023-05-25T21:14:59.629Z,13.33
2023-05-25T21:17:28.194Z,16.53
2023-05-25T21:19:55.119Z,13.73
2023-05-25T21:22:22.195Z,16.00
2023-05-25T21:24:50.022Z,14.70
2023-05-25T21:27:17.815Z,12.73
2023-05-25T21:29:44.638Z,14.87
2023-05-25T21:32:11.490Z,16.87
2023-05-25T21:34:38.344Z,14.77
2023-05-25T21:37:05.186Z,16.90
2023-05-25T21:39:32.040Z,15.63
2023-05-25T21:41:58.885Z,17.57
2023-05-25T21:44:25.832Z,18.00
2023-05-25T21:46:52.791Z,15.53
2023-05-25T21:49:19.746Z,18.07
2023-05-25T21:51:46.610Z,18.60
2023-05-25T21:54:13.433Z,15.40
2023-05-25T21:56:40.340Z,16.93
2023-05-25T21:59:07.215Z,17.23
2023-05-25T22:01:34.276Z,16.43
2023-05-25T22:04:01.470Z,13.87
2023-05-25T22:06:28.374Z,17.03
2023-05-25T22:08:55.284Z,13.10
2023-05-25T22:11:22.318Z,14.47
2023-05-25T22:13:49.206Z,13.57
2023-05-25T22:16:16.062Z,14.00
2023-05-25T22:18:43.190Z,13.67
2023-05-25T22:21:10.175Z,12.90
2023-05-25T22:23:37.356Z,17.13
2023-05-25T22:26:05.189Z,14.87
2023-05-25T22:28:32.299Z,14.40
2023-05-25T22:30:59.306Z,14.20
2023-05-25T22:33:26.456Z,15.37
2023-05-25T22:35:53.290Z,16.20
2023-05-25T22:38:20.135Z,17.97
2023-05-25T22:40:47.828Z,15.10
2023-05-25T22:43:15.402Z,15.57
2023-05-25T22:45:42.298Z,13.87
2023-05-25T22:48:10.982Z,19.63
2023-05-25T22:50:37.867Z,18.23
2023-05-25T22:53:05.005Z,16.67
2023-05-25T22:55:32.672Z,14.37
2023-05-25T22:57:59.514Z,17.10
2023-05-25T23:00:26.396Z,18.03
2023-05-25T23:02:53.397Z,15.33
2023-05-25T23:05:20.512Z,18.10
2023-05-25T23:07:47.522Z,13.70
2023-05-25T23:10:14.449Z,17.70
2023-05-25T23:12:41.496Z,18.73
2023-05-25T23:15:09.578Z,17.30
2023-05-25T23:17:36.549Z,15.17
2023-05-25T23:20:04.893Z,18.67
2023-05-25T23:22:31.797Z,22.00
2023-05-25T23:24:58.785Z,15.50
2023-05-25T23:27:25.942Z,18.70
2023-05-25T23:29:53.168Z,16.00
2023-05-25T23:32:20.123Z,16.37
2023-05-25T23:34:47.150Z,15.90
2023-05-25T23:37:14.210Z,22.53
2023-05-25T23:39:41.176Z,20.60
2023-05-25T23:42:08.198Z,19.20
2023-05-25T23:44:35.783Z,20.30
2023-05-25T23:47:02.802Z,19.67
2023-05-25T23:49:29.857Z,25.83
2023-05-25T23:51:56.942Z,24.40
2023-05-25T23:54:23.899Z,18.83
2023-05-25T23:56:51.651Z,14.67
2023-05-25T23:59:18.632Z,15.70
